sensor_id;sensor_type;location;lat;lon;timestamp;pressure;altitude;pressure_sealevel;temperature;humidity
21361;BME280;10839;43.206;23.550;2024-03-22T00:01:52;97351.44;;;8.95;51.42
21361;BME280;10839;43.206;23.550;2024-03-22T00:04:18;97346.09;;;8.95;51.58
21361;BME280;10839;43.206;23.550;2024-03-22T00:06:44;97350.47;;;8.96;52.05
21361;BME280;10839;43.206;23.550;2024-03-22T00:09:10;97359.34;;;8.74;55.04
21361;BME280;10839;43.206;23.550;2024-03-22T00:11:35;97359.09;;;8.61;56.71
21361;BME280;10839;43.206;23.550;2024-03-22T00:14:01;97347.66;;;8.67;57.00
21361;BME280;10839;43.206;23.550;2024-03-22T00:16:26;97354.69;;;8.68;57.38
21361;BME280;10839;43.206;23.550;2024-03-22T00:18:52;97349.69;;;8.65;58.05
21361;BME280;10839;43.206;23.550;2024-03-22T00:21:17;97343.00;;;8.61;58.81
21361;BME280;10839;43.206;23.550;2024-03-22T00:23:43;97347.03;;;8.57;59.27
21361;BME280;10839;43.206;23.550;2024-03-22T00:26:08;97340.97;;;8.63;59.03
21361;BME280;10839;43.206;23.550;2024-03-22T00:28:34;97349.69;;;8.65;59.17
21361;BME280;10839;43.206;23.550;2024-03-22T00:30:59;97350.28;;;8.75;59.19
21361;BME280;10839;43.206;23.550;2024-03-22T00:33:25;97348.84;;;8.87;58.26
21361;BME280;10839;43.206;23.550;2024-03-22T00:35:50;97347.44;;;8.76;59.19
21361;BME280;10839;43.206;23.550;2024-03-22T00:38:15;97346.94;;;8.73;59.82
21361;BME280;10839;43.206;23.550;2024-03-22T00:40:41;97351.66;;;8.40;61.12
21361;BME280;10839;43.206;23.550;2024-03-22T00:43:06;97353.47;;;8.48;61.26
21361;BME280;10839;43.206;23.550;2024-03-22T00:45:32;97343.81;;;8.39;62.17
21361;BME280;10839;43.206;23.550;2024-03-22T00:47:57;97358.28;;;8.30;62.54
21361;BME280;10839;43.206;23.550;2024-03-22T00:50:22;97353.13;;;8.51;62.18
21361;BME280;10839;43.206;23.550;2024-03-22T00:52:50;97347.16;;;8.41;62.98
21361;BME280;10839;43.206;23.550;2024-03-22T00:55:15;97359.28;;;8.29;63.97
21361;BME280;10839;43.206;23.550;2024-03-22T00:57:40;97356.22;;;8.40;63.74
21361;BME280;10839;43.206;23.550;2024-03-22T01:00:06;97359.34;;;8.13;64.44
21361;BME280;10839;43.206;23.550;2024-03-22T01:02:32;97357.97;;;8.25;64.42
21361;BME280;10839;43.206;23.550;2024-03-22T01:04:58;97357.69;;;8.12;65.11
21361;BME280;10839;43.206;23.550;2024-03-22T01:07:23;97366.78;;;7.95;65.69
21361;BME280;10839;43.206;23.550;2024-03-22T01:09:48;97364.28;;;7.93;65.37
21361;BME280;10839;43.206;23.550;2024-03-22T01:12:14;97361.44;;;7.95;65.92
21361;BME280;10839;43.206;23.550;2024-03-22T01:14:39;97378.66;;;7.92;66.19
21361;BME280;10839;43.206;23.550;2024-03-22T01:17:04;97377.50;;;7.95;66.57
21361;BME280;10839;43.206;23.550;2024-03-22T01:19:30;97385.47;;;7.48;69.13
21361;BME280;10839;43.206;23.550;2024-03-22T01:21:55;97381.31;;;6.97;72.48
21361;BME280;10839;43.206;23.550;2024-03-22T01:24:21;97365.63;;;6.94;73.75
21361;BME280;10839;43.206;23.550;2024-03-22T01:26:46;97377.50;;;6.92;74.50
21361;BME280;10839;43.206;23.550;2024-03-22T01:29:13;97379.31;;;6.99;74.81
21361;BME280;10839;43.206;23.550;2024-03-22T01:31:38;97376.66;;;6.91;75.92
21361;BME280;10839;43.206;23.550;2024-03-22T01:34:04;97389.69;;;6.86;77.02
21361;BME280;10839;43.206;23.550;2024-03-22T01:36:30;97386.00;;;6.87;77.63
21361;BME280;10839;43.206;23.550;2024-03-22T01:38:55;97387.66;;;6.72;79.22
21361;BME280;10839;43.206;23.550;2024-03-22T01:41:21;97378.59;;;6.57;81.18
21361;BME280;10839;43.206;23.550;2024-03-22T01:43:46;97383.50;;;6.78;80.97
21361;BME280;10839;43.206;23.550;2024-03-22T01:46:11;97377.63;;;6.50;83.17
21361;BME280;10839;43.206;23.550;2024-03-22T01:48:37;97373.41;;;6.47;83.92
21361;BME280;10839;43.206;23.550;2024-03-22T01:51:02;97371.94;;;6.53;84.15
21361;BME280;10839;43.206;23.550;2024-03-22T01:53:29;97381.28;;;6.49;84.99
21361;BME280;10839;43.206;23.550;2024-03-22T01:55:55;97378.28;;;6.52;85.22
21361;BME280;10839;43.206;23.550;2024-03-22T01:58:21;97377.25;;;6.37;87.02
21361;BME280;10839;43.206;23.550;2024-03-22T02:00:47;97401.31;;;6.45;86.74
21361;BME280;10839;43.206;23.550;2024-03-22T02:03:12;97387.53;;;6.24;88.78
21361;BME280;10839;43.206;23.550;2024-03-22T02:05:37;97383.19;;;6.15;89.64
21361;BME280;10839;43.206;23.550;2024-03-22T02:08:03;97388.56;;;6.31;89.03
21361;BME280;10839;43.206;23.550;2024-03-22T02:10:28;97377.81;;;6.07;90.51
21361;BME280;10839;43.206;23.550;2024-03-22T02:12:54;97389.69;;;6.12;91.01
21361;BME280;10839;43.206;23.550;2024-03-22T02:15:19;97393.94;;;5.89;92.79
21361;BME280;10839;43.206;23.550;2024-03-22T02:17:45;97391.22;;;6.23;90.96
21361;BME280;10839;43.206;23.550;2024-03-22T02:20:10;97387.84;;;6.05;92.04
21361;BME280;10839;43.206;23.550;2024-03-22T02:22:37;97404.50;;;5.99;93.14
21361;BME280;10839;43.206;23.550;2024-03-22T02:25:02;97402.81;;;5.98;93.36
21361;BME280;10839;43.206;23.550;2024-03-22T02:27:28;97414.75;;;5.86;93.71
21361;BME280;10839;43.206;23.550;2024-03-22T02:29:53;97408.50;;;5.77;94.98
21361;BME280;10839;43.206;23.550;2024-03-22T02:32:19;97408.81;;;5.92;94.42
21361;BME280;10839;43.206;23.550;2024-03-22T02:34:44;97404.50;;;5.99;94.06
21361;BME280;10839;43.206;23.550;2024-03-22T02:37:09;97410.84;;;6.06;93.05
21361;BME280;10839;43.206;23.550;2024-03-22T02:39:35;97414.50;;;5.97;92.79
21361;BME280;10839;43.206;23.550;2024-03-22T02:42:00;97418.50;;;6.01;93.28
21361;BME280;10839;43.206;23.550;2024-03-22T02:44:25;97417.50;;;5.94;93.25
21361;BME280;10839;43.206;23.550;2024-03-22T02:46:51;97426.16;;;5.96;93.46
21361;BME280;10839;43.206;23.550;2024-03-22T02:49:16;97407.84;;;6.01;93.46
21361;BME280;10839;43.206;23.550;2024-03-22T02:51:41;97420.91;;;6.12;92.26
21361;BME280;10839;43.206;23.550;2024-03-22T02:54:07;97421.88;;;6.03;92.85
21361;BME280;10839;43.206;23.550;2024-03-22T02:56:32;97418.28;;;5.86;93.01
21361;BME280;10839;43.206;23.550;2024-03-22T02:58:58;97417.28;;;5.87;93.39
21361;BME280;10839;43.206;23.550;2024-03-22T03:01:23;97420.72;;;5.80;93.09
21361;BME280;10839;43.206;23.550;2024-03-22T03:03:48;97421.44;;;5.64;94.29
21361;BME280;10839;43.206;23.550;2024-03-22T03:06:14;97422.81;;;5.68;94.30
21361;BME280;10839;43.206;23.550;2024-03-22T03:08:40;97415.31;;;5.64;95.22
21361;BME280;10839;43.206;23.550;2024-03-22T03:11:05;97420.63;;;5.64;94.50
21361;BME280;10839;43.206;23.550;2024-03-22T03:13:31;97410.16;;;5.45;95.89
21361;BME280;10839;43.206;23.550;2024-03-22T03:15:57;97417.25;;;5.54;95.72
21361;BME280;10839;43.206;23.550;2024-03-22T03:18:22;97416.75;;;5.33;96.76
21361;BME280;10839;43.206;23.550;2024-03-22T03:20:48;97421.31;;;5.40;97.06
21361;BME280;10839;43.206;23.550;2024-03-22T03:23:13;97421.56;;;5.55;97.24
21361;BME280;10839;43.206;23.550;2024-03-22T03:25:38;97423.22;;;5.56;96.49
21361;BME280;10839;43.206;23.550;2024-03-22T03:28:04;97428.28;;;5.59;96.74
21361;BME280;10839;43.206;23.550;2024-03-22T03:30:29;97428.34;;;5.49;97.43
21361;BME280;10839;43.206;23.550;2024-03-22T03:32:55;97426.59;;;5.58;97.42
21361;BME280;10839;43.206;23.550;2024-03-22T03:35:20;97428.56;;;5.56;97.34
21361;BME280;10839;43.206;23.550;2024-03-22T03:37:45;97424.19;;;5.47;98.08
21361;BME280;10839;43.206;23.550;2024-03-22T03:40:11;97422.81;;;5.43;98.40
21361;BME280;10839;43.206;23.550;2024-03-22T03:42:36;97419.50;;;5.41;98.00
21361;BME280;10839;43.206;23.550;2024-03-22T03:45:02;97430.88;;;5.51;98.65
21361;BME280;10839;43.206;23.550;2024-03-22T03:47:27;97425.06;;;5.30;98.93
21361;BME280;10839;43.206;23.550;2024-03-22T03:49:52;97421.09;;;5.34;99.47
21361;BME280;10839;43.206;23.550;2024-03-22T03:52:18;97437.16;;;5.42;99.16
21361;BME280;10839;43.206;23.550;2024-03-22T03:54:43;97422.72;;;5.27;100.00
21361;BME280;10839;43.206;23.550;2024-03-22T03:57:08;97428.78;;;5.37;99.67
21361;BME280;10839;43.206;23.550;2024-03-22T03:59:34;97435.19;;;5.44;99.51
21361;BME280;10839;43.206;23.550;2024-03-22T04:01:59;97432.84;;;5.41;98.99
21361;BME280;10839;43.206;23.550;2024-03-22T04:04:25;97431.13;;;5.40;99.47
21361;BME280;10839;43.206;23.550;2024-03-22T04:06:50;97436.31;;;5.41;99.12
21361;BME280;10839;43.206;23.550;2024-03-22T04:09:15;97440.00;;;5.40;99.27
21361;BME280;10839;43.206;23.550;2024-03-22T04:11:41;97433.50;;;5.43;98.89
21361;BME280;10839;43.206;23.550;2024-03-22T04:14:06;97438.16;;;5.41;99.51
21361;BME280;10839;43.206;23.550;2024-03-22T04:16:32;97451.78;;;5.38;98.99
21361;BME280;10839;43.206;23.550;2024-03-22T04:18:57;97451.41;;;5.50;98.92
21361;BME280;10839;43.206;23.550;2024-03-22T04:21:23;97455.78;;;5.34;99.47
21361;BME280;10839;43.206;23.550;2024-03-22T04:23:48;97457.56;;;5.51;98.99
21361;BME280;10839;43.206;23.550;2024-03-22T04:26:14;97452.31;;;5.15;100.00
21361;BME280;10839;43.206;23.550;2024-03-22T04:28:40;97463.03;;;5.23;100.00
21361;BME280;10839;43.206;23.550;2024-03-22T04:31:06;97464.69;;;5.24;100.00
21361;BME280;10839;43.206;23.550;2024-03-22T04:33:33;97461.88;;;5.44;99.13
21361;BME280;10839;43.206;23.550;2024-03-22T04:35:58;97465.50;;;5.60;97.85
21361;BME280;10839;43.206;23.550;2024-03-22T04:38:24;97460.75;;;5.80;96.82
21361;BME280;10839;43.206;23.550;2024-03-22T04:40:50;97458.91;;;6.31;92.77
21361;BME280;10839;43.206;23.550;2024-03-22T04:43:15;97454.56;;;7.12;88.43
21361;BME280;10839;43.206;23.550;2024-03-22T04:45:42;97459.91;;;7.60;84.99
21361;BME280;10839;43.206;23.550;2024-03-22T04:48:08;97460.66;;;8.64;78.70
21361;BME280;10839;43.206;23.550;2024-03-22T04:50:33;97467.84;;;8.71;76.65
21361;BME280;10839;43.206;23.550;2024-03-22T04:52:58;97464.00;;;9.64;72.27
21361;BME280;10839;43.206;23.550;2024-03-22T04:55:24;97464.88;;;9.79;70.44
21361;BME280;10839;43.206;23.550;2024-03-22T04:57:49;97470.22;;;10.16;68.30
21361;BME280;10839;43.206;23.550;2024-03-22T05:00:15;97473.44;;;10.85;65.89
21361;BME280;10839;43.206;23.550;2024-03-22T05:02:40;97463.38;;;11.08;64.09
21361;BME280;10839;43.206;23.550;2024-03-22T05:05:05;97474.25;;;11.78;61.40
21361;BME280;10839;43.206;23.550;2024-03-22T05:07:32;97472.75;;;11.54;61.50
21361;BME280;10839;43.206;23.550;2024-03-22T05:09:57;97475.84;;;11.51;61.39
21361;BME280;10839;43.206;23.550;2024-03-22T05:12:23;97478.75;;;11.98;58.38
21361;BME280;10839;43.206;23.550;2024-03-22T05:14:48;97488.16;;;12.36;57.54
21361;BME280;10839;43.206;23.550;2024-03-22T05:17:14;97490.19;;;13.03;55.42
21361;BME280;10839;43.206;23.550;2024-03-22T05:19:39;97486.88;;;14.00;52.32
21361;BME280;10839;43.206;23.550;2024-03-22T05:22:04;97482.25;;;13.55;52.78
21361;BME280;10839;43.206;23.550;2024-03-22T05:24:31;97491.97;;;12.48;54.94
21361;BME280;10839;43.206;23.550;2024-03-22T05:26:57;97494.19;;;12.38;56.45
21361;BME280;10839;43.206;23.550;2024-03-22T05:29:23;97493.03;;;12.47;55.88
21361;BME280;10839;43.206;23.550;2024-03-22T05:31:48;97483.69;;;13.51;53.71
21361;BME280;10839;43.206;23.550;2024-03-22T05:34:16;97489.97;;;13.71;52.29
21361;BME280;10839;43.206;23.550;2024-03-22T05:36:41;97494.19;;;14.45;50.46
21361;BME280;10839;43.206;23.550;2024-03-22T05:39:07;97491.91;;;15.06;47.80
21361;BME280;10839;43.206;23.550;2024-03-22T05:41:32;97487.56;;;15.49;47.63
21361;BME280;10839;43.206;23.550;2024-03-22T05:43:58;97499.78;;;15.96;45.86
21361;BME280;10839;43.206;23.550;2024-03-22T05:46:23;97495.34;;;16.75;43.84
21361;BME280;10839;43.206;23.550;2024-03-22T05:48:49;97492.94;;;17.69;41.89
21361;BME280;10839;43.206;23.550;2024-03-22T05:51:15;97494.88;;;17.50;41.76
21361;BME280;10839;43.206;23.550;2024-03-22T05:53:41;97495.53;;;18.17;40.30
21361;BME280;10839;43.206;23.550;2024-03-22T05:56:07;97502.13;;;17.02;42.61
21361;BME280;10839;43.206;23.550;2024-03-22T05:58:32;97499.72;;;15.33;45.19
21361;BME280;10839;43.206;23.550;2024-03-22T06:00:58;97508.63;;;17.55;42.17
21361;BME280;10839;43.206;23.550;2024-03-22T06:03:23;97517.88;;;20.75;36.62
21361;BME280;10839;43.206;23.550;2024-03-22T06:05:49;97507.22;;;19.16;37.68
21361;BME280;10839;43.206;23.550;2024-03-22T06:08:14;97522.72;;;20.68;35.93
21361;BME280;10839;43.206;23.550;2024-03-22T06:10:44;97517.59;;;22.17;33.66
21361;BME280;10839;43.206;23.550;2024-03-22T06:13:10;97524.81;;;23.28;31.97
21361;BME280;10839;43.206;23.550;2024-03-22T06:15:35;97526.94;;;23.73;30.25
21361;BME280;10839;43.206;23.550;2024-03-22T06:18:01;97529.22;;;19.89;35.47
21361;BME280;10839;43.206;23.550;2024-03-22T06:20:26;97526.72;;;19.87;36.17
21361;BME280;10839;43.206;23.550;2024-03-22T06:22:52;97537.03;;;20.42;34.72
21361;BME280;10839;43.206;23.550;2024-03-22T06:25:17;97539.75;;;20.42;35.16
21361;BME280;10839;43.206;23.550;2024-03-22T06:27:43;97543.06;;;21.10;33.77
21361;BME280;10839;43.206;23.550;2024-03-22T06:30:08;97545.22;;;21.08;33.26
21361;BME280;10839;43.206;23.550;2024-03-22T06:32:34;97538.09;;;21.07;32.99
21361;BME280;10839;43.206;23.550;2024-03-22T06:34:59;97545.44;;;19.95;34.88
21361;BME280;10839;43.206;23.550;2024-03-22T06:37:24;97530.38;;;18.56;36.64
21361;BME280;10839;43.206;23.550;2024-03-22T06:39:50;97544.88;;;18.38;37.24
21361;BME280;10839;43.206;23.550;2024-03-22T06:42:15;97547.19;;;19.22;36.32
21361;BME280;10839;43.206;23.550;2024-03-22T06:44:41;97546.44;;;19.89;35.23
21361;BME280;10839;43.206;23.550;2024-03-22T06:47:06;97553.31;;;21.19;33.49
21361;BME280;10839;43.206;23.550;2024-03-22T06:49:32;97551.41;;;22.28;32.41
21361;BME280;10839;43.206;23.550;2024-03-22T06:51:57;97554.25;;;23.38;30.76
21361;BME280;10839;43.206;23.550;2024-03-22T06:54:23;97550.31;;;23.24;30.93
21361;BME280;10839;43.206;23.550;2024-03-22T06:56:49;97555.59;;;23.87;29.71
21361;BME280;10839;43.206;23.550;2024-03-22T06:59:17;97550.69;;;22.11;31.35
21361;BME280;10839;43.206;23.550;2024-03-22T07:01:43;97558.81;;;21.79;31.77
21361;BME280;10839;43.206;23.550;2024-03-22T07:04:08;97568.34;;;21.98;31.24
21361;BME280;10839;43.206;23.550;2024-03-22T07:06:34;97561.53;;;22.81;30.69
21361;BME280;10839;43.206;23.550;2024-03-22T07:08:59;97564.41;;;22.96;30.14
21361;BME280;10839;43.206;23.550;2024-03-22T07:11:25;97565.22;;;23.33;30.15
21361;BME280;10839;43.206;23.550;2024-03-22T07:13:50;97568.22;;;21.88;30.73
21361;BME280;10839;43.206;23.550;2024-03-22T07:16:15;97559.16;;;21.66;32.33
21361;BME280;10839;43.206;23.550;2024-03-22T07:18:41;97561.97;;;21.71;31.50
21361;BME280;10839;43.206;23.550;2024-03-22T07:21:07;97572.97;;;21.76;30.77
21361;BME280;10839;43.206;23.550;2024-03-22T07:23:32;97561.75;;;21.94;30.81
21361;BME280;10839;43.206;23.550;2024-03-22T07:25:58;97571.09;;;21.17;31.91
21361;BME280;10839;43.206;23.550;2024-03-22T07:28:24;97558.59;;;22.07;31.45
21361;BME280;10839;43.206;23.550;2024-03-22T07:30:50;97566.97;;;20.98;31.75
21361;BME280;10839;43.206;23.550;2024-03-22T07:33:15;97566.03;;;20.14;32.47
21361;BME280;10839;43.206;23.550;2024-03-22T07:35:43;97560.84;;;21.07;31.69
21361;BME280;10839;43.206;23.550;2024-03-22T07:38:08;97570.22;;;21.33;31.27
21361;BME280;10839;43.206;23.550;2024-03-22T07:40:33;97569.69;;;21.52;31.02
21361;BME280;10839;43.206;23.550;2024-03-22T07:42:59;97562.94;;;19.20;33.50
21361;BME280;10839;43.206;23.550;2024-03-22T07:45:24;97562.81;;;21.12;31.60
21361;BME280;10839;43.206;23.550;2024-03-22T07:47:50;97566.06;;;20.76;31.95
21361;BME280;10839;43.206;23.550;2024-03-22T07:50:15;97575.38;;;19.62;32.98
21361;BME280;10839;43.206;23.550;2024-03-22T07:52:41;97564.88;;;19.08;33.97
21361;BME280;10839;43.206;23.550;2024-03-22T07:55:06;97566.56;;;21.44;30.87
21361;BME280;10839;43.206;23.550;2024-03-22T07:57:32;97562.28;;;20.32;31.65
21361;BME280;10839;43.206;23.550;2024-03-22T07:59:57;97561.69;;;20.02;32.44
21361;BME280;10839;43.206;23.550;2024-03-22T08:02:23;97567.94;;;19.00;33.60
21361;BME280;10839;43.206;23.550;2024-03-22T08:04:48;97560.38;;;20.04;32.48
21361;BME280;10839;43.206;23.550;2024-03-22T08:07:14;97569.00;;;19.22;33.52
21361;BME280;10839;43.206;23.550;2024-03-22T08:09:39;97565.47;;;18.87;33.92
21361;BME280;10839;43.206;23.550;2024-03-22T08:12:05;97566.28;;;19.10;34.00
21361;BME280;10839;43.206;23.550;2024-03-22T08:14:31;97562.63;;;20.36;32.48
21361;BME280;10839;43.206;23.550;2024-03-22T08:16:56;97566.97;;;18.19;34.04
21361;BME280;10839;43.206;23.550;2024-03-22T08:19:22;97566.53;;;18.63;34.50
21361;BME280;10839;43.206;23.550;2024-03-22T08:21:47;97570.19;;;18.91;33.59
21361;BME280;10839;43.206;23.550;2024-03-22T08:24:13;97572.13;;;16.46;37.45
21361;BME280;10839;43.206;23.550;2024-03-22T08:26:38;97563.44;;;17.88;36.13
21361;BME280;10839;43.206;23.550;2024-03-22T08:29:04;97564.22;;;16.38;38.04
21361;BME280;10839;43.206;23.550;2024-03-22T08:31:30;97556.09;;;17.41;37.22
21361;BME280;10839;43.206;23.550;2024-03-22T08:33:55;97558.75;;;17.30;36.83
21361;BME280;10839;43.206;23.550;2024-03-22T08:36:21;97562.47;;;16.50;38.16
21361;BME280;10839;43.206;23.550;2024-03-22T08:38:47;97566.31;;;15.74;38.72
21361;BME280;10839;43.206;23.550;2024-03-22T08:41:12;97561.19;;;16.95;38.07
21361;BME280;10839;43.206;23.550;2024-03-22T08:43:37;97567.59;;;17.61;36.38
21361;BME280;10839;43.206;23.550;2024-03-22T08:46:03;97560.47;;;17.24;37.12
21361;BME280;10839;43.206;23.550;2024-03-22T08:48:28;97550.91;;;18.93;35.46
21361;BME280;10839;43.206;23.550;2024-03-22T08:50:54;97556.94;;;19.69;33.82
21361;BME280;10839;43.206;23.550;2024-03-22T08:53:20;97558.13;;;16.67;36.95
21361;BME280;10839;43.206;23.550;2024-03-22T08:55:46;97562.44;;;15.94;38.07
21361;BME280;10839;43.206;23.550;2024-03-22T08:58:12;97560.69;;;17.05;36.74
21361;BME280;10839;43.206;23.550;2024-03-22T09:00:37;97557.66;;;16.21;37.75
21361;BME280;10839;43.206;23.550;2024-03-22T09:03:03;97551.81;;;18.64;35.26
21361;BME280;10839;43.206;23.550;2024-03-22T09:05:28;97548.38;;;20.05;32.90
21361;BME280;10839;43.206;23.550;2024-03-22T09:07:54;97545.63;;;17.74;35.39
21361;BME280;10839;43.206;23.550;2024-03-22T09:10:20;97552.91;;;18.86;34.92
21361;BME280;10839;43.206;23.550;2024-03-22T09:12:46;97543.00;;;20.10;33.34
21361;BME280;10839;43.206;23.550;2024-03-22T09:15:11;97546.25;;;18.18;34.40
21361;BME280;10839;43.206;23.550;2024-03-22T09:17:37;97547.53;;;19.77;33.30
21361;BME280;10839;43.206;23.550;2024-03-22T09:20:02;97549.75;;;19.52;32.76
21361;BME280;10839;43.206;23.550;2024-03-22T09:22:29;97545.00;;;19.59;33.04
21361;BME280;10839;43.206;23.550;2024-03-22T09:24:54;97540.06;;;18.86;33.91
21361;BME280;10839;43.206;23.550;2024-03-22T09:27:20;97541.63;;;18.71;33.70
21361;BME280;10839;43.206;23.550;2024-03-22T09:29:45;97541.41;;;18.84;33.88
21361;BME280;10839;43.206;23.550;2024-03-22T09:32:10;97542.09;;;18.91;33.79
21361;BME280;10839;43.206;23.550;2024-03-22T09:34:36;97540.69;;;18.77;33.28
21361;BME280;10839;43.206;23.550;2024-03-22T09:37:01;97539.44;;;19.42;32.37
21361;BME280;10839;43.206;23.550;2024-03-22T09:39:27;97528.84;;;19.85;31.89
21361;BME280;10839;43.206;23.550;2024-03-22T09:41:52;97538.63;;;20.71;30.78
21361;BME280;10839;43.206;23.550;2024-03-22T09:44:18;97539.50;;;20.60;30.42
21361;BME280;10839;43.206;23.550;2024-03-22T09:46:44;97535.00;;;19.64;31.20
21361;BME280;10839;43.206;23.550;2024-03-22T09:49:11;97526.78;;;19.36;32.26
21361;BME280;10839;43.206;23.550;2024-03-22T09:51:37;97528.97;;;20.68;30.60
21361;BME280;10839;43.206;23.550;2024-03-22T09:54:02;97525.78;;;21.26;29.82
21361;BME280;10839;43.206;23.550;2024-03-22T09:56:28;97531.69;;;18.88;31.54
21361;BME280;10839;43.206;23.550;2024-03-22T09:58:55;97528.00;;;18.94;31.73
21361;BME280;10839;43.206;23.550;2024-03-22T10:01:21;97528.13;;;20.34;31.02
21361;BME280;10839;43.206;23.550;2024-03-22T10:03:48;97518.13;;;21.28;29.58
21361;BME280;10839;43.206;23.550;2024-03-22T10:06:14;97523.50;;;20.85;29.64
21361;BME280;10839;43.206;23.550;2024-03-22T10:08:39;97518.44;;;19.82;31.14
21361;BME280;10839;43.206;23.550;2024-03-22T10:11:05;97513.16;;;19.13;31.37
21361;BME280;10839;43.206;23.550;2024-03-22T10:13:30;97499.69;;;20.02;31.06
21361;BME280;10839;43.206;23.550;2024-03-22T10:15:56;97504.38;;;19.11;31.45
21361;BME280;10839;43.206;23.550;2024-03-22T10:18:21;97504.56;;;17.46;33.95
21361;BME280;10839;43.206;23.550;2024-03-22T10:20:47;97498.28;;;18.28;33.24
21361;BME280;10839;43.206;23.550;2024-03-22T10:23:13;97501.31;;;18.96;32.23
21361;BME280;10839;43.206;23.550;2024-03-22T10:25:39;97495.19;;;19.29;32.48
21361;BME280;10839;43.206;23.550;2024-03-22T10:28:05;97503.78;;;19.60;32.05
21361;BME280;10839;43.206;23.550;2024-03-22T10:30:30;97494.34;;;19.28;31.87
21361;BME280;10839;43.206;23.550;2024-03-22T10:32:56;97489.13;;;19.38;32.35
21361;BME280;10839;43.206;23.550;2024-03-22T10:35:23;97490.03;;;19.55;31.73
21361;BME280;10839;43.206;23.550;2024-03-22T10:37:49;97491.06;;;19.38;31.60
21361;BME280;10839;43.206;23.550;2024-03-22T10:40:15;97489.84;;;18.59;32.89
21361;BME280;10839;43.206;23.550;2024-03-22T10:42:42;97483.13;;;19.01;32.50
21361;BME280;10839;43.206;23.550;2024-03-22T10:45:08;97478.56;;;18.56;32.92
21361;BME280;10839;43.206;23.550;2024-03-22T10:47:34;97477.84;;;17.84;33.97
21361;BME280;10839;43.206;23.550;2024-03-22T10:52:25;97472.34;;;18.26;32.93
21361;BME280;10839;43.206;23.550;2024-03-22T10:54:52;97482.97;;;16.79;35.02
21361;BME280;10839;43.206;23.550;2024-03-22T10:57:17;97469.97;;;18.18;33.61
21361;BME280;10839;43.206;23.550;2024-03-22T10:59:43;97462.44;;;19.40;32.19
21361;BME280;10839;43.206;23.550;2024-03-22T11:02:11;97461.34;;;19.97;31.38
21361;BME280;10839;43.206;23.550;2024-03-22T11:04:36;97460.03;;;20.16;30.25
21361;BME280;10839;43.206;23.550;2024-03-22T11:07:02;97457.72;;;18.50;32.00
21361;BME280;10839;43.206;23.550;2024-03-22T11:09:28;97452.09;;;19.42;31.53
21361;BME280;10839;43.206;23.550;2024-03-22T11:11:55;97453.88;;;18.97;31.22
21361;BME280;10839;43.206;23.550;2024-03-22T11:14:21;97446.44;;;18.35;32.78
21361;BME280;10839;43.206;23.550;2024-03-22T11:16:48;97442.81;;;19.71;30.61
21361;BME280;10839;43.206;23.550;2024-03-22T11:19:14;97441.63;;;20.62;30.52
21361;BME280;10839;43.206;23.550;2024-03-22T11:21:39;97435.03;;;18.03;33.11
21361;BME280;10839;43.206;23.550;2024-03-22T11:24:05;97435.84;;;18.96;32.10
21361;BME280;10839;43.206;23.550;2024-03-22T11:26:31;97444.03;;;17.62;33.84
21361;BME280;10839;43.206;23.550;2024-03-22T11:28:56;97432.72;;;18.53;32.44
21361;BME280;10839;43.206;23.550;2024-03-22T11:31:22;97430.06;;;19.32;31.71
21361;BME280;10839;43.206;23.550;2024-03-22T11:33:55;97413.22;;;19.35;31.60
21361;BME280;10839;43.206;23.550;2024-03-22T11:36:24;97414.09;;;19.52;31.39
21361;BME280;10839;43.206;23.550;2024-03-22T11:38:50;97413.00;;;19.98;31.34
21361;BME280;10839;43.206;23.550;2024-03-22T11:41:18;97405.72;;;20.20;31.04
21361;BME280;10839;43.206;23.550;2024-03-22T11:43:45;97408.44;;;20.75;30.73
21361;BME280;10839;43.206;23.550;2024-03-22T11:46:13;97397.50;;;20.75;29.61
21361;BME280;10839;43.206;23.550;2024-03-22T11:48:40;97402.00;;;20.81;29.94
21361;BME280;10839;43.206;23.550;2024-03-22T11:51:05;97395.25;;;21.10;29.75
21361;BME280;10839;43.206;23.550;2024-03-22T11:53:31;97391.84;;;21.46;29.16
21361;BME280;10839;43.206;23.550;2024-03-22T11:55:58;97388.66;;;21.54;28.61
21361;BME280;10839;43.206;23.550;2024-03-22T11:58:26;97390.25;;;21.02;28.94
21361;BME280;10839;43.206;23.550;2024-03-22T12:00:51;97381.81;;;21.30;28.96
21361;BME280;10839;43.206;23.550;2024-03-22T12:03:17;97382.69;;;21.09;28.75
21361;BME280;10839;43.206;23.550;2024-03-22T12:05:42;97380.88;;;20.98;28.96
21361;BME280;10839;43.206;23.550;2024-03-22T12:08:08;97379.88;;;19.94;30.28
21361;BME280;10839;43.206;23.550;2024-03-22T12:10:33;97368.69;;;18.67;31.45
21361;BME280;10839;43.206;23.550;2024-03-22T12:12:58;97366.72;;;19.30;31.12
21361;BME280;10839;43.206;23.550;2024-03-22T12:15:24;97362.63;;;18.65;32.59
21361;BME280;10839;43.206;23.550;2024-03-22T12:17:49;97355.09;;;18.21;33.17
21361;BME280;10839;43.206;23.550;2024-03-22T12:20:15;97355.13;;;18.83;32.17
21361;BME280;10839;43.206;23.550;2024-03-22T12:22:41;97359.19;;;18.81;32.38
21361;BME280;10839;43.206;23.550;2024-03-22T12:25:07;97356.25;;;19.27;31.97
21361;BME280;10839;43.206;23.550;2024-03-22T12:27:34;97353.88;;;19.59;31.42
21361;BME280;10839;43.206;23.550;2024-03-22T12:30:00;97354.91;;;20.19;31.37
21361;BME280;10839;43.206;23.550;2024-03-22T12:32:25;97348.91;;;20.05;30.47
21361;BME280;10839;43.206;23.550;2024-03-22T12:34:51;97348.41;;;19.75;30.30
21361;BME280;10839;43.206;23.550;2024-03-22T12:37:16;97349.41;;;19.69;31.22
21361;BME280;10839;43.206;23.550;2024-03-22T12:39:41;97342.78;;;19.82;31.68
21361;BME280;10839;43.206;23.550;2024-03-22T12:42:07;97348.78;;;19.34;31.14
21361;BME280;10839;43.206;23.550;2024-03-22T12:44:32;97342.94;;;19.42;31.37
21361;BME280;10839;43.206;23.550;2024-03-22T12:46:57;97338.94;;;19.33;31.52